Terminal Aerodrome Forecast
Issued by NWS Springfield, MO

Home | Current Version | Previous Version | Text Only | Print | Product List | Glossary On
Versions: 1 2 3 4 5 6 7 8 9 10 11 12 13 14 15 16 17 18 19 20 21 22 23 24 25 26 27
000
FTUS43 KSGF 261200 AAA
TAFSGF
TAF AMD
KSGF 261250Z 2613/2712 22010KT P6SM SCT015 BKN100
     FM261500 24010KT P6SM FEW025
     FM261800 23010KT P6SM SCT050
     FM270100 20007KT P6SM SCT120 PROB30 2707/2712 4SM -TSRA
      OVC025CB=

USA.gov is the U.S. government's official web portal to all federal, state and local government web resources and services.